Time;durP1;ratioP1;P1;durP2;ratioP2;P2;SDS_P1;SDS_P2;PMS_P1;PMS_P2;Temp;Humidity;BMP_temperature;BMP_pressure;BME280_temperature;BME280_humidity;BME280_pressure;Samples;Min_cycle;Max_cycle;Signal;HPM_P1;HPM_P2
2022/07/05 00:01:00;;;;;;;614.47;574.50;;;12.60;99.90;;;;;;5093887;28;20095;-60
2022/07/05 00:03:27;;;;;;;563.70;529.05;;;12.50;99.90;;;;;;5094319;28;20454;-60
2022/07/05 00:05:53;;;;;;;658.80;616.55;;;12.50;99.90;;;;;;5094396;28;20083;-60
2022/07/05 00:08:19;;;;;;;532.28;501.20;;;12.50;99.90;;;;;;5092934;28;20072;-60
2022/07/05 00:10:45;;;;;;;527.33;496.05;;;12.50;99.90;;;;;;5093629;28;20115;-60
2022/07/05 00:13:11;;;;;;;551.63;518.55;;;12.40;99.90;;;;;;5093323;28;20558;-60
2022/07/05 00:15:36;;;;;;;616.58;576.03;;;12.30;99.90;;;;;;5093084;28;20119;-60
2022/07/05 00:18:02;;;;;;;675.67;631.63;;;12.30;99.90;;;;;;5094136;28;20379;-60
2022/07/05 00:20:28;;;;;;;661.25;615.42;;;12.20;99.90;;;;;;5093486;28;20044;-60
2022/07/05 00:22:54;;;;;;;721.28;672.40;;;12.20;99.90;;;;;;5093461;28;20450;-60
2022/07/05 00:25:20;;;;;;;660.50;618.00;;;12.20;99.90;;;;;;5092822;28;20414;-60
2022/07/05 00:27:46;;;;;;;680.50;634.35;;;12.20;99.90;;;;;;5093682;28;20080;-60
2022/07/05 00:30:12;;;;;;;590.80;551.40;;;12.10;99.90;;;;;;5093126;28;20048;-60
2022/07/05 00:32:38;;;;;;;692.63;645.97;;;12.00;99.90;;;;;;5092785;28;20040;-60
2022/07/05 00:35:06;;;;;;;747.40;695.03;;;12.00;99.90;;;;;;5093623;28;20044;-60
2022/07/05 00:37:32;;;;;;;683.80;636.70;;;11.90;99.90;;;;;;5091488;28;20510;-60
2022/07/05 00:39:58;;;;;;;703.67;653.42;;;12.00;99.90;;;;;;5092438;28;20040;-59
2022/07/05 00:42:24;;;;;;;683.20;633.38;;;11.90;99.90;;;;;;5093384;28;20051;-59
2022/07/05 00:44:50;;;;;;;647.30;602.53;;;11.90;99.90;;;;;;5110393;28;20117;-60
2022/07/05 00:47:16;;;;;;;558.83;524.70;;;11.90;99.90;;;;;;5113896;28;20055;-59
2022/07/05 00:49:43;;;;;;;691.20;643.60;;;11.90;99.90;;;;;;5095650;28;20043;-60
2022/07/05 00:52:10;;;;;;;640.05;598.53;;;11.90;99.90;;;;;;5095117;28;20066;-60
2022/07/05 00:54:37;;;;;;;652.67;608.85;;;11.90;99.90;;;;;;5094817;28;20048;-59
2022/07/05 00:57:03;;;;;;;617.15;578.50;;;11.90;99.90;;;;;;5113692;28;20102;-59
2022/07/05 00:59:30;;;;;;;585.70;548.83;;;11.80;99.90;;;;;;5112992;28;20084;-60
2022/07/05 01:01:58;;;;;;;604.50;567.17;;;11.80;99.90;;;;;;5113975;28;20126;-59
2022/07/05 01:04:24;;;;;;;564.08;530.22;;;11.80;99.90;;;;;;5112319;28;20036;-60
2022/07/05 01:06:51;;;;;;;554.08;521.08;;;11.80;99.90;;;;;;5113695;28;20135;-60
2022/07/05 01:09:19;;;;;;;741.20;688.33;;;11.90;99.90;;;;;;5113540;28;20560;-59
2022/07/05 01:11:47;;;;;;;629.70;587.67;;;11.90;99.90;;;;;;5112359;28;20118;-59
2022/07/05 01:14:17;;;;;;;560.28;527.10;;;11.80;99.90;;;;;;5094958;28;20538;-60
2022/07/05 01:16:43;;;;;;;601.88;564.25;;;11.80;99.90;;;;;;5113626;28;20047;-60
2022/07/05 01:19:11;;;;;;;587.55;550.67;;;11.80;99.90;;;;;;5112370;28;20040;-60
2022/07/05 01:21:39;;;;;;;600.50;563.75;;;11.70;99.90;;;;;;5112753;28;20123;-59
2022/07/05 01:24:07;;;;;;;651.45;610.15;;;11.70;99.90;;;;;;5095553;28;20036;-59
2022/07/05 01:26:33;;;;;;;605.05;567.75;;;11.70;99.90;;;;;;5112428;28;20050;-59
2022/07/05 01:28:59;;;;;;;591.70;556.40;;;11.60;99.90;;;;;;5095408;28;20043;-59
2022/07/05 01:31:26;;;;;;;592.78;556.83;;;11.50;99.90;;;;;;5094735;28;20390;-59
2022/07/05 01:33:51;;;;;;;612.60;574.47;;;11.50;99.90;;;;;;5112499;28;20047;-59
2022/07/05 01:36:18;;;;;;;616.90;579.13;;;11.40;99.90;;;;;;5078536;28;20065;-59
2022/07/05 01:38:45;;;;;;;613.10;575.40;;;11.30;99.90;;;;;;5112766;28;20114;-59
2022/07/05 01:41:11;;;;;;;552.72;519.95;;;11.30;99.90;;;;;;5093934;28;20066;-59
2022/07/05 01:43:37;;;;;;;620.92;583.03;;;11.20;99.90;;;;;;5113133;28;20051;-60
2022/07/05 01:46:05;;;;;;;526.15;494.45;;;11.20;99.90;;;;;;5113246;28;20051;-59
2022/07/05 01:48:34;;;;;;;558.85;525.88;;;11.10;99.90;;;;;;5093459;28;20036;-59
2022/07/05 01:51:04;;;;;;;620.65;582.03;;;11.10;99.90;;;;;;5113117;28;20054;-60
2022/07/05 01:53:32;;;;;;;611.15;573.22;;;11.10;99.90;;;;;;5094488;28;20043;-59
2022/07/05 01:55:59;;;;;;;539.65;507.35;;;11.10;99.90;;;;;;5094495;28;20043;-59
2022/07/05 01:58:26;;;;;;;607.05;568.28;;;11.00;99.90;;;;;;5094561;28;20047;-59
2022/07/05 02:00:53;;;;;;;595.40;555.03;;;11.00;99.90;;;;;;5094225;28;20084;-59
2022/07/05 02:03:20;;;;;;;577.08;541.35;;;11.00;99.90;;;;;;5112956;28;20044;-59
2022/07/05 02:05:47;;;;;;;558.33;524.13;;;11.00;99.90;;;;;;5095300;28;20439;-59
2022/07/05 02:08:18;;;;;;;503.58;474.35;;;11.00;99.90;;;;;;5094378;28;20131;-59
2022/07/05 02:10:43;;;;;;;527.08;495.95;;;11.00;99.90;;;;;;5096458;28;20482;-59
2022/07/05 02:13:10;;;;;;;606.88;567.65;;;11.00;99.90;;;;;;5115211;28;20047;-59
2022/07/05 02:15:39;;;;;;;557.90;525.17;;;;;;;;;;5097622;28;20104;-59
2022/07/05 02:18:07;;;;;;;613.22;574.53;;;10.90;99.90;;;;;;5098364;28;20058;-59
2022/07/05 02:20:34;;;;;;;614.00;575.58;;;10.80;99.90;;;;;;5098317;28;20098;-59
2022/07/05 02:23:01;;;;;;;598.20;560.60;;;10.80;99.90;;;;;;5097780;28;20052;-59
2022/07/05 02:25:28;;;;;;;567.80;532.38;;;10.70;99.90;;;;;;5098071;28;20108;-59
2022/07/05 02:27:57;;;;;;;589.65;551.38;;;10.70;99.90;;;;;;5098355;28;20435;-59
2022/07/05 02:30:22;;;;;;;550.15;516.95;;;10.70;99.90;;;;;;5097962;28;20178;-59
2022/07/05 02:32:49;;;;;;;496.90;467.80;;;10.70;99.90;;;;;;5097768;28;20050;-59
2022/07/05 02:35:14;;;;;;;499.23;471.70;;;10.80;99.90;;;;;;5098323;28;20394;-59
2022/07/05 02:37:41;;;;;;;492.52;464.48;;;10.80;99.90;;;;;;5097850;28;20435;-59
2022/07/05 02:40:10;;;;;;;472.00;445.77;;;10.90;99.90;;;;;;5116210;28;20402;-59
2022/07/05 02:42:39;;;;;;;463.48;438.33;;;10.90;99.90;;;;;;5097754;28;20044;-59
2022/07/05 02:45:07;;;;;;;473.02;446.40;;;10.90;99.90;;;;;;5093819;28;20401;-59
2022/07/05 02:47:34;;;;;;;500.88;472.70;;;10.80;99.90;;;;;;5094533;28;20066;-59
2022/07/05 02:50:06;;;;;;;508.25;478.77;;;10.70;99.90;;;;;;5093691;28;20134;-59
2022/07/05 02:52:34;;;;;;;600.72;562.15;;;10.70;99.90;;;;;;5094905;28;20122;-59
2022/07/05 02:55:03;;;;;;;586.92;550.92;;;10.60;99.90;;;;;;5094422;28;20109;-59
2022/07/05 02:57:29;;;;;;;559.40;526.80;;;10.50;99.90;;;;;;5095123;28;20047;-59
2022/07/05 02:59:56;;;;;;;540.70;509.15;;;10.50;99.90;;;;;;5093841;28;20036;-59
2022/07/05 03:02:25;;;;;;;546.72;514.17;;;10.80;99.90;;;;;;5094279;28;20459;-59
2022/07/05 03:04:52;;;;;;;553.85;521.20;;;10.60;99.90;;;;;;5076760;28;20098;-59
2022/07/05 03:07:19;;;;;;;549.03;517.05;;;10.50;99.90;;;;;;5093918;28;20052;-59
2022/07/05 03:09:46;;;;;;;554.25;521.67;;;10.50;99.90;;;;;;5093332;28;20039;-59
2022/07/05 03:12:13;;;;;;;551.92;519.28;;;10.60;99.90;;;;;;5093224;28;20108;-59
2022/07/05 03:14:39;;;;;;;540.63;509.75;;;10.50;99.90;;;;;;5094081;28;20454;-59
2022/07/05 03:17:05;;;;;;;531.28;500.85;;;10.60;99.90;;;;;;5089627;28;20398;-59
2022/07/05 03:19:31;;;;;;;610.03;572.55;;;10.60;99.90;;;;;;5092794;28;20048;-59
2022/07/05 03:21:57;;;;;;;638.47;598.63;;;10.70;99.90;;;;;;5094127;28;20109;-59
2022/07/05 03:24:23;;;;;;;506.35;477.40;;;10.70;99.90;;;;;;5093997;28;20044;-59
2022/07/05 03:26:49;;;;;;;526.88;495.88;;;10.80;99.90;;;;;;5094384;28;20048;-59
2022/07/05 03:29:15;;;;;;;485.10;457.48;;;10.80;99.90;;;;;;5093746;28;20505;-59
2022/07/05 03:31:42;;;;;;;473.83;446.70;;;10.90;99.90;;;;;;5076615;28;20062;-59
2022/07/05 03:34:08;;;;;;;559.05;526.83;;;11.10;99.90;;;;;;5076322;28;20040;-59
2022/07/05 03:36:35;;;;;;;487.95;459.90;;;11.10;99.90;;;;;;5093951;28;20079;-59
2022/07/05 03:39:05;;;;;;;531.72;500.30;;;11.10;99.90;;;;;;5093452;28;20516;-59
2022/07/05 03:41:33;;;;;;;577.75;544.92;;;10.90;99.90;;;;;;5093210;28;20045;-59
2022/07/05 03:44:00;;;;;;;547.75;515.35;;;10.90;99.90;;;;;;5092769;28;20063;-59
2022/07/05 03:46:26;;;;;;;527.08;496.13;;;10.80;99.90;;;;;;5092555;28;20048;-59
2022/07/05 03:48:52;;;;;;;531.70;499.52;;;10.70;99.90;;;;;;5093316;28;20028;-59
2022/07/05 03:51:18;;;;;;;556.22;522.88;;;10.70;99.90;;;;;;5092833;28;20079;-59
2022/07/05 03:53:45;;;;;;;549.67;517.60;;;10.80;99.90;;;;;;5089353;28;20043;-59
2022/07/05 03:56:11;;;;;;;540.85;508.25;;;10.80;99.90;;;;;;5093179;28;20040;-59
2022/07/05 03:58:37;;;;;;;524.03;491.52;;;10.80;99.90;;;;;;5092681;28;20122;-59
2022/07/05 04:01:04;;;;;;;509.73;480.85;;;10.80;99.90;;;;;;5091610;28;20047;-59
2022/07/05 04:03:30;;;;;;;479.55;452.50;;;10.90;99.90;;;;;;5092884;28;20032;-59
2022/07/05 04:05:57;;;;;;;509.23;479.65;;;10.90;99.90;;;;;;5093036;28;20080;-59
2022/07/05 04:08:23;;;;;;;499.10;470.33;;;11.10;99.90;;;;;;5091341;28;20090;-59
2022/07/05 04:10:49;;;;;;;523.38;493.77;;;11.10;99.90;;;;;;5092260;28;20048;-59
2022/07/05 04:13:18;;;;;;;505.40;475.98;;;11.20;99.90;;;;;;5075275;28;20483;-59
2022/07/05 04:15:44;;;;;;;572.83;539.03;;;11.30;99.90;;;;;;5074496;28;20130;-59
2022/07/05 04:18:10;;;;;;;488.13;460.40;;;11.30;99.90;;;;;;5091738;28;20055;-59
2022/07/05 04:20:39;;;;;;;501.58;472.90;;;11.30;99.90;;;;;;5093825;28;20145;-59
2022/07/05 04:23:09;;;;;;;564.58;531.10;;;11.30;99.90;;;;;;5091654;28;20177;-59
2022/07/05 04:25:34;;;;;;;579.50;544.92;;;11.20;99.90;;;;;;5092600;28;20097;-59
2022/07/05 04:28:09;;;;;;;502.67;475.00;;;11.30;99.90;;;;;;5091122;28;20036;-59
2022/07/05 04:30:36;;;;;;;562.33;528.63;;;11.20;99.90;;;;;;5091086;28;20478;-59
2022/07/05 04:33:03;;;;;;;467.42;439.67;;;11.30;99.90;;;;;;5075308;28;20055;-59
2022/07/05 04:35:29;;;;;;;587.88;552.58;;;11.50;99.90;;;;;;5091445;28;20127;-59
2022/07/05 04:37:55;;;;;;;493.20;464.73;;;11.50;99.90;;;;;;5093382;28;20123;-59
2022/07/05 04:40:22;;;;;;;498.25;468.42;;;11.60;99.90;;;;;;5092115;28;20571;-59
2022/07/05 04:42:49;;;;;;;512.15;481.98;;;11.70;99.90;;;;;;5092678;28;20032;-59
2022/07/05 04:45:16;;;;;;;445.23;420.58;;;11.80;99.90;;;;;;5095320;28;20569;-59
2022/07/05 04:47:42;;;;;;;488.17;460.17;;;11.90;99.90;;;;;;5095906;28;20071;-59
2022/07/05 04:50:09;;;;;;;426.95;403.25;;;11.90;99.90;;;;;;5078516;28;20122;-59
2022/07/05 04:52:35;;;;;;;459.20;432.83;;;11.90;99.90;;;;;;5113845;28;20097;-59
2022/07/05 04:55:01;;;;;;;478.60;451.15;;;12.00;99.90;;;;;;5113524;28;20051;-59
2022/07/05 04:57:26;;;;;;;450.75;424.27;;;12.00;99.90;;;;;;5113311;28;20047;-59
2022/07/05 04:59:52;;;;;;;421.85;398.92;;;12.10;99.90;;;;;;5113287;28;20043;-59
2022/07/05 05:02:18;;;;;;;522.08;492.02;;;12.20;99.90;;;;;;5113248;28;20060;-59
2022/07/05 05:04:44;;;;;;;488.50;461.58;;;12.20;99.90;;;;;;5113116;28;20079;-59
2022/07/05 05:07:10;;;;;;;498.33;470.10;;;12.30;99.90;;;;;;5113463;28;20092;-59
2022/07/05 05:09:36;;;;;;;467.00;439.13;;;12.40;99.90;;;;;;5113539;28;20044;-59
2022/07/05 05:12:02;;;;;;;522.83;491.75;;;12.50;99.90;;;;;;5112656;28;20047;-59
2022/07/05 05:14:28;;;;;;;452.88;426.90;;;12.60;99.90;;;;;;5113322;28;20048;-59
2022/07/05 05:16:53;;;;;;;402.33;380.25;;;12.70;99.90;;;;;;5113575;28;20378;-60
2022/07/05 05:19:20;;;;;;;480.52;451.67;;;12.80;99.90;;;;;;5112858;28;20058;-59
2022/07/05 05:21:46;;;;;;;517.20;484.70;;;12.90;99.90;;;;;;5094238;28;20074;-59
2022/07/05 05:24:11;;;;;;;438.70;411.88;;;13.10;99.90;;;;;;5113035;28;20724;-59
2022/07/05 05:26:37;;;;;;;505.88;476.40;;;13.20;99.90;;;;;;5111971;28;20039;-60
2022/07/05 05:29:03;;;;;;;535.33;502.05;;;13.30;99.90;;;;;;5112108;28;20039;-59
2022/07/05 05:31:29;;;;;;;495.45;466.15;;;13.40;99.90;;;;;;5113095;28;20548;-59
2022/07/05 05:33:55;;;;;;;533.65;500.05;;;13.50;99.90;;;;;;5112851;28;20042;-59
2022/07/05 05:36:20;;;;;;;493.92;464.13;;;13.70;99.90;;;;;;5113063;28;20130;-59
2022/07/05 05:38:46;;;;;;;470.80;442.42;;;13.80;99.90;;;;;;5111946;28;20083;-59
2022/07/05 05:41:12;;;;;;;549.10;514.95;;;14.00;99.90;;;;;;5113084;28;20043;-60
2022/07/05 05:43:38;;;;;;;474.65;447.85;;;14.10;99.90;;;;;;5113157;28;20044;-59
2022/07/05 05:46:03;;;;;;;526.35;493.15;;;14.20;99.90;;;;;;5112295;28;20055;-59
2022/07/05 05:48:29;;;;;;;468.17;440.25;;;14.30;99.90;;;;;;5113039;28;20443;-59
2022/07/05 05:50:56;;;;;;;429.45;405.42;;;14.40;99.90;;;;;;5112870;28;20513;-59
2022/07/05 05:53:22;;;;;;;403.02;381.75;;;14.50;99.90;;;;;;5111715;28;20035;-59
2022/07/05 05:55:48;;;;;;;399.73;377.58;;;14.60;99.90;;;;;;5112442;28;20048;-59
2022/07/05 05:58:14;;;;;;;398.23;376.05;;;15.00;99.90;;;;;;5113043;28;20085;-59
2022/07/05 06:00:41;;;;;;;370.58;350.98;;;14.90;99.90;;;;;;5112061;28;20114;-59
2022/07/05 06:03:07;;;;;;;396.48;375.55;;;15.00;99.90;;;;;;5112991;28;20043;-59
2022/07/05 06:05:33;;;;;;;337.20;320.15;;;15.20;99.90;;;;;;5112413;28;20055;-59
2022/07/05 06:07:58;;;;;;;347.25;329.77;;;15.40;99.90;;;;;;5111521;28;20035;-59
2022/07/05 06:10:27;;;;;;;337.15;319.08;;;15.50;99.90;;;;;;5112636;28;20085;-60
2022/07/05 06:12:55;;;;;;;424.48;400.52;;;15.70;99.90;;;;;;5112769;28;20047;-60
2022/07/05 06:15:21;;;;;;;458.95;433.77;;;15.80;99.90;;;;;;5112052;28;20056;-59
2022/07/05 06:17:48;;;;;;;307.77;292.48;;;15.90;99.90;;;;;;5112562;28;20435;-60
2022/07/05 06:20:18;;;;;;;402.52;379.83;;;16.00;99.90;;;;;;5112586;28;20051;-59
2022/07/05 06:22:44;;;;;;;456.13;430.48;;;16.20;99.90;;;;;;5099977;28;20045;-59
2022/07/05 06:25:11;;;;;;;293.15;279.50;;;16.30;99.90;;;;;;5113069;28;20047;-59
2022/07/05 06:27:40;;;;;;;343.35;325.70;;;16.30;99.90;;;;;;5094709;28;20035;-60
2022/07/05 06:30:07;;;;;;;410.92;389.67;;;16.30;99.90;;;;;;5111504;28;20501;-60
2022/07/05 06:32:32;;;;;;;390.23;368.80;;;16.40;99.90;;;;;;5112206;28;20536;-60
2022/07/05 06:34:58;;;;;;;317.63;301.08;;;16.40;99.90;;;;;;5112084;28;20039;-60
2022/07/05 06:37:24;;;;;;;341.13;323.80;;;16.40;99.90;;;;;;5112475;28;20051;-60
2022/07/05 06:39:50;;;;;;;313.27;298.83;;;16.50;99.90;;;;;;5112409;28;20742;-59
2022/07/05 06:42:16;;;;;;;315.67;298.33;;;16.50;99.90;;;;;;5111805;28;20067;-59
2022/07/05 06:44:43;;;;;;;305.58;290.52;;;16.50;99.90;;;;;;5112046;28;20097;-59
2022/07/05 06:47:09;;;;;;;310.67;294.42;;;16.60;99.90;;;;;;5112723;28;20089;-60
2022/07/05 06:49:35;;;;;;;369.67;350.38;;;16.70;99.90;;;;;;5111268;28;20047;-60
2022/07/05 06:52:01;;;;;;;343.17;326.00;;;16.80;99.90;;;;;;5113218;28;20508;-60
2022/07/05 06:54:27;;;;;;;392.10;371.73;;;16.80;99.90;;;;;;5116389;28;20044;-59
2022/07/05 06:56:55;;;;;;;322.15;306.35;;;17.00;99.90;;;;;;5115319;28;20055;-59
2022/07/05 06:59:22;;;;;;;376.10;357.02;;;17.10;99.90;;;;;;5115294;28;20444;-59
2022/07/05 07:01:47;;;;;;;427.10;403.27;;;17.20;99.90;;;;;;5116000;28;20057;-58
2022/07/05 07:04:13;;;;;;;346.02;328.35;;;17.30;99.90;;;;;;5115435;28;20119;-59
2022/07/05 07:06:39;;;;;;;473.08;446.05;;;17.30;99.90;;;;;;5115303;28;20047;-59
2022/07/05 07:09:22;;;;;;;414.30;392.10;;;17.40;99.90;;;;;;5115854;28;20043;-59
2022/07/05 07:11:48;;;;;;;460.27;433.95;;;17.40;99.90;;;;;;5115207;28;20585;-59
2022/07/05 07:14:16;;;;;;;376.42;356.92;;;17.50;99.90;;;;;;5115431;28;20126;-59
2022/07/05 07:16:42;;;;;;;446.23;420.05;;;17.50;99.90;;;;;;5115528;28;20055;-59
2022/07/05 07:19:08;;;;;;;378.80;357.60;;;17.50;99.90;;;;;;5114499;28;20473;-59
2022/07/05 07:21:34;;;;;;;466.95;439.60;;;17.60;99.90;;;;;;5115002;28;20069;-59
2022/07/05 07:24:00;;;;;;;420.55;398.38;;;17.60;99.90;;;;;;5096168;28;20122;-59
2022/07/05 07:26:26;;;;;;;575.08;542.22;;;17.70;99.90;;;;;;5114300;28;20105;-59
2022/07/05 07:28:52;;;;;;;442.38;418.10;;;17.70;99.90;;;;;;5115388;28;20388;-59
2022/07/05 07:31:18;;;;;;;465.20;440.35;;;17.80;99.90;;;;;;5114794;28;20497;-59
2022/07/05 07:33:44;;;;;;;562.22;526.03;;;18.00;99.90;;;;;;5115365;28;20096;-59
2022/07/05 07:36:09;;;;;;;731.35;677.00;;;18.10;99.90;;;;;;5115332;28;20055;-59
2022/07/05 07:38:35;;;;;;;602.70;565.08;;;18.00;99.90;;;;;;5114328;28;20048;-60
2022/07/05 07:41:01;;;;;;;619.30;580.38;;;18.10;99.90;;;;;;5115082;28;20108;-59
2022/07/05 07:43:27;;;;;;;1999.90;999.90;;;18.30;99.90;;;;;;5113399;28;20044;-59
2022/07/05 07:45:53;;;;;;;1999.90;999.90;;;18.40;99.90;;;;;;5114280;28;20058;-59
2022/07/05 07:48:20;;;;;;;1999.90;999.90;;;18.70;99.90;;;;;;5114983;28;20044;-59
2022/07/05 07:50:45;;;;;;;1999.90;999.90;;;18.70;99.90;;;;;;5113985;28;20039;-59
2022/07/05 07:53:11;;;;;;;1547.18;793.45;;;18.60;99.90;;;;;;5114023;28;20587;-60
2022/07/05 07:55:37;;;;;;;1999.90;999.90;;;18.50;99.90;;;;;;5114867;28;20040;-60
2022/07/05 07:58:03;;;;;;;1999.90;999.90;;;18.50;99.90;;;;;;5113952;28;20081;-60
2022/07/05 08:00:31;;;;;;;1999.90;999.90;;;18.50;99.90;;;;;;5110776;28;20081;-61
2022/07/05 08:02:58;;;;;;;1999.90;999.90;;;18.40;99.90;;;;;;5114007;28;20035;-60
2022/07/05 08:05:23;;;;;;;1999.90;999.90;;;18.40;99.90;;;;;;5113975;28;20065;-60
2022/07/05 08:07:51;;;;;;;1999.90;999.90;;;18.50;99.90;;;;;;5113497;28;20529;-60
2022/07/05 08:10:17;;;;;;;1999.90;999.90;;;18.40;99.90;;;;;;5114299;28;20047;-60
2022/07/05 08:12:42;;;;;;;1999.90;999.90;;;18.40;99.90;;;;;;5113911;28;20474;-60
2022/07/05 08:15:09;;;;;;;1999.90;999.90;;;18.60;99.90;;;;;;5078564;28;20039;-60
2022/07/05 08:17:35;;;;;;;1999.90;999.90;;;19.10;99.90;;;;;;5113841;28;20542;-60
2022/07/05 08:22:45;;;;;;;1999.90;999.90;;;19.10;99.90;;;;;;5114039;28;20051;-60
2022/07/05 08:25:13;;;;;;;1999.90;999.90;;;18.70;99.90;;;;;;5114341;28;20066;-60
2022/07/05 08:27:39;;;;;;;1999.90;999.90;;;18.70;99.90;;;;;;5112773;28;20520;-60
2022/07/05 08:30:06;;;;;;;1999.90;999.90;;;18.70;99.90;;;;;;5114223;28;20086;-60
2022/07/05 08:32:32;;;;;;;1999.90;999.90;;;18.80;99.90;;;;;;5114206;28;20035;-60
2022/07/05 08:34:57;;;;;;;1999.90;999.90;;;18.90;99.90;;;;;;5112801;28;20489;-60
2022/07/05 08:37:23;;;;;;;1999.90;999.90;;;18.90;99.90;;;;;;5114487;28;20043;-59
2022/07/05 08:39:49;;;;;;;1999.90;999.90;;;18.90;99.90;;;;;;5113864;28;20477;-59
2022/07/05 08:42:15;;;;;;;1999.90;999.90;;;19.10;99.90;;;;;;5113210;28;20050;-60
2022/07/05 08:44:43;;;;;;;1999.90;999.90;;;19.20;99.90;;;;;;5113647;28;20134;-60
2022/07/05 08:47:11;;;;;;;1999.90;999.90;;;19.30;99.90;;;;;;5113589;28;20094;-60
2022/07/05 08:49:40;;;;;;;1999.90;999.90;;;19.10;99.90;;;;;;5112621;28;20051;-60
2022/07/05 08:52:10;;;;;;;1999.90;999.90;;;18.90;99.90;;;;;;5113791;28;20055;-60
2022/07/05 08:54:37;;;;;;;1999.90;999.90;;;19.10;99.90;;;;;;5113777;28;20043;-60
2022/07/05 08:57:03;;;;;;;1999.90;999.90;;;19.40;99.90;;;;;;5112966;28;20052;-60
2022/07/05 08:59:29;;;;;;;1999.90;999.90;;;19.90;99.90;;;;;;5113758;28;20397;-60
2022/07/05 09:01:57;;;;;;;1999.90;999.90;;;20.10;99.90;;;;;;5113473;28;20051;-60
2022/07/05 09:04:29;;;;;;;1999.90;999.90;;;19.90;99.90;;;;;;5109829;28;20071;-60
2022/07/05 09:07:01;;;;;;;1999.90;999.90;;;19.70;99.50;;;;;;5113327;28;20052;-60
2022/07/05 09:09:27;;;;;;;1999.90;999.90;;;19.40;99.90;;;;;;5113185;28;20385;-60
2022/07/05 09:11:55;;;;;;;1999.90;999.90;;;19.30;99.90;;;;;;5111792;28;20056;-60
2022/07/05 09:14:25;;;;;;;1999.90;999.90;;;19.30;99.90;;;;;;5112884;28;20079;-60
2022/07/05 09:16:52;;;;;;;1999.90;999.90;;;19.30;99.90;;;;;;5112897;28;20458;-60
2022/07/05 09:19:18;;;;;;;1999.90;999.90;;;19.50;99.90;;;;;;5112870;28;20114;-60
2022/07/05 09:21:44;;;;;;;1999.90;999.90;;;19.60;99.90;;;;;;5113368;28;20126;-59
2022/07/05 09:24:12;;;;;;;1999.90;999.90;;;19.70;99.90;;;;;;5112324;28;20485;-60
2022/07/05 09:26:43;;;;;;;1999.90;999.90;;;19.50;99.90;;;;;;5112972;28;20093;-60
2022/07/05 09:29:11;;;;;;;1999.90;999.90;;;19.30;99.90;;;;;;5112940;28;20471;-60
2022/07/05 09:31:39;;;;;;;1999.90;999.90;;;19.40;99.90;;;;;;5112471;28;20063;-60
2022/07/05 09:34:07;;;;;;;1999.90;999.90;;;19.60;99.90;;;;;;5113171;28;20127;-60
2022/07/05 09:36:47;;;;;;;1999.90;999.90;;;19.60;99.90;;;;;;5113137;28;20047;-60
2022/07/05 09:39:13;;;;;;;1999.90;999.90;;;19.60;99.90;;;;;;5112371;28;20043;-60
2022/07/05 09:41:39;;;;;;;1999.90;999.90;;;19.60;99.90;;;;;;5112997;28;20040;-60
2022/07/05 09:44:05;;;;;;;1999.90;999.90;;;19.80;99.90;;;;;;5112987;28;20058;-60
2022/07/05 09:46:31;;;;;;;1999.90;999.90;;;19.80;99.90;;;;;;5111971;28;20131;-60
2022/07/05 09:48:57;;;;;;;1999.90;999.90;;;20.10;99.90;;;;;;5113057;28;20035;-60
2022/07/05 09:51:24;;;;;;;1999.90;999.90;;;20.10;99.40;;;;;;5113220;28;20109;-60
2022/07/05 09:53:52;;;;;;;1999.90;999.90;;;20.20;98.60;;;;;;5112436;28;20044;-60
2022/07/05 09:56:17;;;;;;;1999.90;999.90;;;20.00;99.90;;;;;;5112459;28;20043;-60
2022/07/05 09:58:44;;;;;;;1999.90;999.90;;;20.00;99.90;;;;;;5113115;28;20469;-60
2022/07/05 10:01:28;;;;;;;1999.90;999.90;;;19.80;99.90;;;;;;5094237;28;20051;-60
2022/07/05 10:03:56;;;;;;;1999.90;999.90;;;19.70;99.90;;;;;;5112313;28;20469;-60
2022/07/05 10:06:24;;;;;;;1999.90;999.90;;;19.70;99.90;;;;;;5112376;28;20094;-60
2022/07/05 10:08:52;;;;;;;1999.90;999.90;;;19.60;99.90;;;;;;5112697;28;20062;-60
2022/07/05 10:11:19;;;;;;;1999.90;999.90;;;19.50;99.90;;;;;;5112891;28;20058;-60
2022/07/05 10:13:49;;;;;;;1999.90;999.90;;;19.40;99.90;;;;;;5104397;28;20115;-60
2022/07/05 10:16:17;;;;;;;1999.90;999.90;;;19.30;99.90;;;;;;5108606;28;20059;-59
2022/07/05 10:18:46;;;;;;;1999.90;999.90;;;19.30;99.90;;;;;;5112289;28;20040;-59
2022/07/05 10:21:14;;;;;;;1999.90;999.90;;;19.20;99.90;;;;;;5111304;28;20050;-60
2022/07/05 10:23:44;;;;;;;1999.90;999.90;;;19.10;99.90;;;;;;5112259;28;20039;-59
2022/07/05 10:26:12;;;;;;;1999.90;999.90;;;18.90;99.90;;;;;;5112511;28;20054;-59
2022/07/05 10:28:40;;;;;;;1999.90;999.90;;;18.80;99.90;;;;;;5114695;28;20470;-60
2022/07/05 10:31:09;;;;;;;1999.90;999.90;;;18.60;99.90;;;;;;5116227;28;20389;-60
2022/07/05 10:33:35;;;;;;;1999.90;999.90;;;18.70;99.90;;;;;;5116392;28;20031;-60
2022/07/05 10:36:03;;;;;;;1999.90;999.90;;;18.80;99.90;;;;;;5115557;28;20047;-60
2022/07/05 10:38:29;;;;;;;1999.90;999.90;;;18.80;99.90;;;;;;5115943;28;20043;-60
2022/07/05 10:40:59;;;;;;;1999.90;999.90;;;18.80;99.90;;;;;;5081191;28;20055;-60
2022/07/05 10:43:25;;;;;;;1999.90;999.90;;;18.80;99.90;;;;;;5115701;28;20066;-60
2022/07/05 10:45:51;;;;;;;1999.90;999.90;;;18.80;99.90;;;;;;5116479;28;20057;-60
2022/07/05 10:48:25;;;;;;;1999.90;999.90;;;18.90;99.90;;;;;;5115084;28;20046;-60
2022/07/05 10:50:58;;;;;;;1999.90;999.90;;;19.00;99.90;;;;;;5116272;28;20055;-60
2022/07/05 10:53:31;;;;;;;1999.90;999.90;;;19.40;99.90;;;;;;5116366;28;20388;-60
2022/07/05 10:56:11;;;;;;;1999.90;999.90;;;19.70;99.90;;;;;;5115375;28;20140;-60
2022/07/05 10:58:39;;;;;;;1999.90;999.90;;;19.70;99.90;;;;;;5095572;28;20436;-60
2022/07/05 11:01:12;;;;;;;1999.90;999.90;;;19.60;99.90;;;;;;5095908;28;20040;-60
2022/07/05 11:03:38;;;;;;;;;;;19.60;99.90;;;;;;5094742;28;20393;-60
2022/07/05 11:06:07;;;;;;;1999.90;999.90;;;19.50;99.90;;;;;;5106251;28;20331;-60
2022/07/05 11:08:57;;;;;;;1999.90;999.90;;;19.50;99.90;;;;;;5115936;28;20516;-60
2022/07/05 11:11:26;;;;;;;1999.90;999.90;;;19.40;99.90;;;;;;5096853;28;20083;-60
2022/07/05 11:13:54;;;;;;;1999.90;999.90;;;19.30;99.90;;;;;;5093833;28;20039;-60
2022/07/05 11:16:26;;;;;;;1999.90;999.90;;;19.10;99.90;;;;;;5106415;28;20044;-60
2022/07/05 11:19:04;;;;;;;1999.90;999.90;;;19.10;99.90;;;;;;5096471;28;20442;-60
2022/07/05 11:21:30;;;;;;;1999.90;999.90;;;19.10;99.90;;;;;;5115268;28;20047;-60
2022/07/05 11:24:19;;;;;;;1999.90;999.90;;;19.10;99.90;;;;;;5114025;28;20127;-60
2022/07/05 11:26:47;;;;;;;1999.90;999.90;;;19.20;99.90;;;;;;5113411;28;20513;-60
2022/07/05 11:29:39;;;;;;;1999.90;999.90;;;19.40;99.90;;;;;;5114961;28;20044;-60
2022/07/05 11:32:06;;;;;;;1999.90;999.90;;;19.60;99.80;;;;;;5113973;28;20078;-60
2022/07/05 11:34:34;;;;;;;1999.90;999.90;;;19.90;98.70;;;;;;5115407;28;20107;-60
2022/07/05 11:37:24;;;;;;;1999.90;999.90;;;20.30;98.60;;;;;;5115600;28;20047;-60
2022/07/05 11:40:09;;;;;;;1999.90;999.90;;;20.80;96.20;;;;;;5096803;28;20106;-60
2022/07/05 11:42:39;;;;;;;1999.90;999.90;;;20.70;97.60;;;;;;5115039;28;20078;-60
2022/07/05 11:45:07;;;;;;;1999.90;999.90;;;20.40;98.80;;;;;;5114244;28;20079;-60
2022/07/05 11:47:34;;;;;;;1999.90;999.90;;;20.10;99.90;;;;;;5114416;28;20044;-60
2022/07/05 11:50:00;;;;;;;1999.90;999.90;;;19.80;99.90;;;;;;5109510;28;20047;-60
2022/07/05 11:52:27;;;;;;;1999.90;999.90;;;19.50;99.90;;;;;;5113053;28;20044;-60
2022/07/05 11:54:54;;;;;;;1999.90;999.90;;;19.30;99.90;;;;;;5111779;28;20036;-60
2022/07/05 11:57:20;;;;;;;1999.90;999.90;;;19.20;99.90;;;;;;5114484;28;20039;-60
2022/07/05 11:59:47;;;;;;;1999.90;999.90;;;19.40;99.90;;;;;;5113014;28;20108;-60
2022/07/05 12:02:13;;;;;;;1999.90;999.90;;;20.10;99.90;;;;;;5111673;28;20044;-60
2022/07/05 12:04:39;;;;;;;1999.90;999.90;;;20.70;99.90;;;;;;5114321;28;20032;-60
2022/07/05 12:07:05;;;;;;;1999.90;999.90;;;20.30;99.90;;;;;;5110379;28;20055;-60
2022/07/05 12:15:04;;;;;;;1999.90;999.90;;;20.30;99.90;;;;;;5111680;28;20073;-60